Nearby METAR Reports

 

KAGC - Pittsburgh/Alleg, Pennsylvania, USA
Distance from station: N 14mi, 23km
Updated: Wed, Sep-20-2017 12:53am EDT
Clear
Clear
 Wind from calm
Wind: Calm
Temperature: 66°F , 19°C
Dew Point: 61°F , 16°C
Humidity: 83%
Barometer: 29.99 inHg , 1015.6 hPa
Clouds: Clear
Visibility: 10 miles , 16 km
2017/09/20 04:53 KAGC 200453Z 00000KT 10SM CLR 19/16 A2999 RMK AO2 SLP150 T01940156 402780172
KAFJ - Washington, Pennsylvania, USA
Distance from station: W 17mi, 28km
Updated: Wed, Sep-20-2017 1:35am EDT
Mostly cloudy
Mostly cloudy
 Wind from ENE
Wind: ENE 6 mph , 9 km/h
Temperature: 61°F , 16°C
Dew Point: 59°F , 15°C
Humidity: 94%
Barometer: 29.99 inHg , 1015.6 hPa
Clouds: Mostly cloudy
Visibility: 4 miles , 6 km
Cloud details: Mostly cloudy 12000 ft
2017/09/20 05:35 KAFJ 200535Z AUTO 06005KT 4SM BKN120 16/15 A2999 RMK AO1
 
KLBE - Latrobe, Pennsylvania, USA
Distance from station: ENE 30mi, 48km
Updated: Wed, Sep-20-2017 1:35am EDT
Clear
Clear
 Wind from calm
Wind: Calm
Temperature: 59°F , 15°C
Dew Point: 59°F , 15°C
Humidity: 100%
Barometer: 30.01 inHg , 1016.3 hPa
Clouds: Clear
Visibility: 10 miles , 16 km
2017/09/20 05:35 KLBE 200535Z AUTO 00000KT 10SM CLR 15/15 A3001 RMK AO2
KPIT - Pittsburgh, Pennsylvania, USA
Distance from station: NW 30mi, 48km
Updated: Wed, Sep-20-2017 12:51am EDT
Partly cloudy
Partly cloudy
 Wind from calm
Wind: Calm
Temperature: 66°F , 19°C
Dew Point: 63°F , 17°C
Humidity: 88%
Barometer: 29.99 inHg , 1015.6 hPa
Clouds: Partly cloudy
Visibility: 10 miles , 16 km
Cloud details: Few Clouds 5000 ft
Partly cloudy 10000 ft
2017/09/20 04:51 KPIT 200451Z 00000KT 10SM FEW050 SCT100 19/17 A2999 RMK AO2 SLP154 T01890172 402890167
 
KMGW - Morgantown, West Virginia, USA
Distance from station: S 34mi, 55km
Updated: Wed, Sep-20-2017 12:53am EDT
Clear
Clear
 Wind from calm
Wind: Calm
Temperature: 63°F , 17°C
Dew Point: 61°F , 16°C
Humidity: 94%
Barometer: 30.01 inHg , 1016.3 hPa
Clouds: Clear
Visibility: 7 miles , 11 km
2017/09/20 04:53 KMGW 200453Z AUTO 00000KT 7SM CLR 17/16 A3001 RMK AO2 SLP154 T01720156 402780167
KHLG - Wheeling, West Virginia, USA
Distance from station: W 37mi, 60km
Updated: Wed, Sep-20-2017 12:53am EDT
Few Clouds
Few Clouds
 Wind from E
Wind: E 3 mph , 6 km/h
Temperature: 66°F , 19°C
Dew Point: 64°F , 18°C
Humidity: 94%
Barometer: 29.98 inHg , 1015.2 hPa
Clouds: Few Clouds
Visibility: 10 miles , 16 km
Cloud details: Few Clouds 7000 ft
2017/09/20 04:53 KHLG 200453Z AUTO 08003KT 10SM FEW070 19/18 A2998 RMK AO2 SLP147 T01940178 402830150
 
KBTP - Butler Co., Pennsylvania, USA
Distance from station: N 43mi, 69km
Updated: Wed, Sep-20-2017 12:56am EDT
Mist, Clear
Mist, Clear
 Wind from calm
Wind: Calm
Temperature: 61°F , 16°C
Dew Point: 59°F , 15°C
Humidity: 94%
Barometer: 30.00 inHg , 1015.9 hPa
Summary: Mist
Clouds: Clear
Visibility: 6 miles , 10 km
2017/09/20 04:56 KBTP 200456Z AUTO 00000KT 6SM BR CLR 16/15 A3000 RMK AO2 SLP159 T01560150 402670150
KBVI - Beaver Falls Arp, Pennsylvania, USA
Distance from station: NNW 49mi, 79km
Updated: Tue, Sep-19-2017 8:47pm EDT
NOT Current
Partly cloudy
Partly cloudy
 Wind from calm
Wind: Calm
Temperature: 72°F , 22°C
Dew Point: 63°F , 17°C
Humidity: 73%
Barometer: 30.00 inHg , 1015.9 hPa
Clouds: Partly cloudy
Visibility: 10 miles , 16 km
Cloud details: Partly cloudy 11000 ft
2017/09/20 00:47 KBVI 200047Z 00000KT 10SM SCT110 22/17 A3000 RMK LAST
 
K2G4 - Garrett Co, Maryland, USA
Distance from station: SE 51mi, 82km
Updated: Wed, Sep-20-2017 1:30am EDT
Clear
Clear
 Wind from calm
Wind: Calm
Temperature: 61°F , 16°C
Dew Point: 59°F , 15°C
Humidity: 94%
Barometer: 30.05 inHg , 1017.6 hPa
Clouds: Clear
Visibility: 10 miles , 16 km
2017/09/20 05:30 K2G4 200530Z AUTO 00000KT 10SM CLR 16/15 A3005 RMK AO1
KIDI - Indiana/Stewart, Pennsylvania, USA
Distance from station: NE 56mi, 90km
Updated: Wed, Sep-20-2017 1:35am EDT
Clear
Clear
 Wind from calm
Wind: Calm
Temperature: 61°F , 16°C
Dew Point: 59°F , 15°C
Humidity: 94%
Barometer: 30.04 inHg , 1017.3 hPa
Clouds: Clear
Visibility: 10 miles , 16 km
2017/09/20 05:35 KIDI 200535Z AUTO 00000KT 10SM CLR 16/15 A3004 RMK A01
 
KJST - Johnstown, Pennsylvania, USA
Distance from station: ENE 60mi, 96km
Updated: Wed, Sep-20-2017 12:54am EDT
Clear
Clear
 Wind from WSW
Wind: WSW 5 mph , 7 km/h
Temperature: 63°F , 17°C
Dew Point: 61°F , 16°C
Humidity: 94%
Barometer: 30.03 inHg , 1016.9 hPa
Clouds: Clear
Visibility: 10 miles , 16 km
2017/09/20 04:54 KJST 200454Z AUTO 24004KT 10SM CLR 17/16 A3003 RMK AO2 SLP158 T01720161 402500150
KCBE - Cumberland Reg, Maryland, USA
Distance from station: ESE 72mi, 116km
Updated: Wed, Sep-20-2017 1:26am EDT
Clear
Clear
 Wind from calm
Wind: Calm
Temperature: 64°F , 18°C
Dew Point: 63°F , 17°C
Humidity: 94%
Barometer: 30.04 inHg , 1017.3 hPa
Clouds: Clear
Visibility: 10 miles , 16 km
2017/09/20 05:26 KCBE 200526Z AUTO 00000KT 10SM CLR 18/17 A3004 RMK AO1
 
KILG - Wilmington, Delaware, USA
Distance from station: ESE 234mi, 377km
Updated: Wed, Sep-20-2017 12:51am EDT
Few Clouds
Few Clouds
 Wind from N
Wind: N 10 mph , 17 km/h
Temperature: 70°F , 21°C
Dew Point: 66°F , 19°C
Humidity: 88%
Barometer: 29.87 inHg , 1011.5 hPa
Clouds: Few Clouds
Visibility: 10 miles , 16 km
Cloud details: Few Clouds 4500 ft
2017/09/20 04:51 KILG 200451Z 35009KT 10SM FEW045 21/19 A2987 RMK AO2 SLP115 T02110189 402720206 $
KTUS - Tucson, Arizona, USA
Distance from station: WSW 1806mi, 3283km
Updated: Wed, Sep-20-2017 12:53am EDT
Clear
Clear
 Wind from SSW
Wind: SSW 6 mph , 9 km/h
Temperature: 81°F , 27°C
Dew Point: 52°F , 11°C
Humidity: 37%
Barometer: 29.92 inHg , 1013.2 hPa
Clouds: Clear
Visibility: 10 miles , 16 km
2017/09/20 04:53 KTUS 200453Z 21005KT 10SM CLR 27/11 A2992 RMK AO2 SLP083 T02720111